Oilville, Virginia
Current Conditions -  °F | °C
As of 6:55 AM on Friday 19 Dec 2014 (Local Time) from K7W4 Reporting Station
Clear Clear  
Wind Chill: 27°   Ceiling: Unl
Heat Index: 27°   Visibility: 10mi
Dew Point: 23°   Wind: 0mph
Humidity: 84%   Direction: NA
Pressure: 30.14"   Gusts: NA
Location:  37.7°N, 77.78°W
Report Text: K7W4 191155Z AUTO 00000KT 10SM CLR M03/M05 A3014 RMK AO1 T10281051 10010 21035
Loading
Personal Weather Stations






























Interactive Weather Map New forecast layout! Learn more

10-Day Weather Forecast

Advertisements
Track Severe Weather on mobile